Time;durP1;ratioP1;P1;durP2;ratioP2;P2;SDS_P1;SDS_P2;PMS_P1;PMS_P2;Temp;Humidity;BMP_temperature;BMP_pressure;BME280_temperature;BME280_humidity;BME280_pressure;Samples;Min_cycle;Max_cycle;Signal;HPM_P1;HPM_P2
2023/09/13 00:02:26;;;;;;;14.75;6.93;;;17.50;99.90;;;16.78;100.00;97423.63;5069205;28;20129;-74
2023/09/13 00:04:56;;;;;;;11.27;7.10;;;17.50;99.90;;;16.75;100.00;97418.63;5056377;28;20508;-75
2023/09/13 00:07:24;;;;;;;12.13;7.47;;;17.40;99.90;;;16.81;100.00;97420.84;5056485;28;20057;-75
2023/09/13 00:09:51;;;;;;;8.55;6.05;;;17.50;99.90;;;16.74;100.00;97422.19;5068772;28;20044;-74
2023/09/13 00:12:18;;;;;;;12.70;8.02;;;17.50;99.90;;;16.65;100.00;97426.28;5053069;28;20053;-74
2023/09/13 00:14:48;;;;;;;10.43;6.93;;;17.40;99.90;;;16.71;100.00;97412.75;5054007;28;20064;-75
2023/09/13 00:17:17;;;;;;;14.13;7.40;;;17.30;99.90;;;16.66;100.00;97412.22;5059950;28;20049;-75
2023/09/13 00:19:44;;;;;;;10.90;6.75;;;17.40;99.90;;;16.77;100.00;97408.03;5056904;28;20041;-75
2023/09/13 00:22:11;;;;;;;11.25;6.43;;;17.40;99.90;;;16.86;100.00;97417.91;5055143;28;20138;-74
2023/09/13 00:24:38;;;;;;;13.93;6.53;;;17.40;99.90;;;16.97;100.00;97411.88;5057963;28;20040;-74
2023/09/13 00:27:05;;;;;;;9.35;5.50;;;17.50;99.90;;;17.03;100.00;97414.06;5061766;28;20052;-75
2023/09/13 00:29:34;;;;;;;9.43;5.53;;;17.60;99.90;;;16.99;100.00;97428.34;5055293;28;20795;-75
2023/09/13 00:32:02;;;;;;;8.45;5.63;;;17.70;99.90;;;17.16;100.00;97420.13;5068370;28;20045;-75
2023/09/13 00:34:30;;;;;;;9.65;5.28;;;17.80;99.90;;;17.19;100.00;97433.00;5058789;28;20049;-75
2023/09/13 00:36:57;;;;;;;10.18;5.68;;;17.80;99.90;;;17.16;100.00;97425.38;5043033;28;20159;-75
2023/09/13 00:39:24;;;;;;;8.90;6.05;;;17.80;99.90;;;17.14;100.00;97430.72;5041513;28;20537;-74
2023/09/13 00:41:51;;;;;;;10.48;5.97;;;17.80;99.90;;;17.09;100.00;97438.09;5055564;28;20109;-75
2023/09/13 00:44:18;;;;;;;10.38;5.70;;;17.80;99.90;;;17.14;100.00;97433.34;5059491;28;20049;-75
2023/09/13 00:46:46;;;;;;;8.30;5.50;;;17.80;99.90;;;17.19;100.00;97426.94;5055012;28;20052;-74
2023/09/13 00:49:16;;;;;;;12.77;5.57;;;17.80;99.90;;;17.14;100.00;97432.50;5060916;28;20068;-75
2023/09/13 00:51:44;;;;;;;8.45;5.55;;;17.80;99.90;;;17.12;100.00;97429.97;5060325;28;20060;-75
2023/09/13 00:54:13;;;;;;;9.70;5.85;;;17.70;99.90;;;17.18;100.00;97441.84;5041421;28;20056;-74
2023/09/13 00:56:41;;;;;;;10.30;5.15;;;17.70;99.90;;;17.27;100.00;97441.19;5053292;28;20065;-75
2023/09/13 00:59:09;;;;;;;10.07;5.85;;;17.70;99.90;;;17.23;100.00;97452.00;5056798;28;20048;-73
2023/09/13 01:01:37;;;;;;;8.52;5.72;;;17.80;99.90;;;17.22;100.00;97450.31;5042440;28;20095;-75
2023/09/13 01:04:05;;;;;;;9.55;5.65;;;17.80;99.90;;;17.24;100.00;97443.16;5056518;28;20080;-75
2023/09/13 01:06:33;;;;;;;8.00;6.15;;;17.70;99.90;;;17.26;100.00;97459.63;5040394;28;20044;-74
2023/09/13 01:09:03;;;;;;;12.27;6.68;;;17.80;99.90;;;17.40;100.00;97469.97;5056358;28;20076;-75
2023/09/13 01:11:32;;;;;;;8.85;6.28;;;17.80;99.90;;;17.42;100.00;97467.25;5068776;28;21031;-75
2023/09/13 01:13:59;;;;;;;13.73;7.38;;;17.90;99.90;;;17.30;100.00;97472.44;5055010;28;20048;-74
2023/09/13 01:16:45;;;;;;;8.52;6.65;;;17.90;99.90;;;17.44;100.00;97474.06;5054523;28;20041;-74
2023/09/13 01:19:45;;;;;;;9.45;6.35;;;17.90;99.90;;;17.42;100.00;97473.31;5055997;28;20068;-75
2023/09/13 01:22:30;;;;;;;15.88;7.80;;;17.80;99.90;;;17.36;100.00;97476.41;5040674;28;20127;-75
2023/09/13 01:25:25;;;;;;;12.32;7.97;;;17.70;99.90;;;17.35;100.00;97483.41;5051464;28;20144;-75
2023/09/13 01:28:12;;;;;;;12.15;6.63;;;17.70;99.90;;;17.36;100.00;97481.66;5057071;28;20045;-75
2023/09/13 01:30:41;;;;;;;13.43;7.78;;;17.70;99.90;;;17.38;100.00;97479.75;5058003;28;20044;-75
2023/09/13 01:33:08;;;;;;;10.65;7.05;;;17.70;99.90;;;17.32;100.00;97482.81;5057239;28;20056;-75
2023/09/13 01:35:35;;;;;;;12.10;8.15;;;17.70;99.90;;;17.15;100.00;97497.13;5069996;28;20094;-75
2023/09/13 01:38:03;;;;;;;14.57;8.95;;;17.70;99.90;;;17.17;100.00;97510.97;5059404;28;20045;-75
2023/09/13 01:40:36;;;;;;;13.48;9.85;;;17.70;99.90;;;17.25;100.00;97506.03;5054728;28;20055;-75
2023/09/13 01:43:04;;;;;;;15.82;9.98;;;17.70;99.90;;;17.32;100.00;97501.19;5051561;28;20037;-75
2023/09/13 01:45:34;;;;;;;14.30;10.63;;;17.70;99.90;;;17.21;100.00;97508.97;5056814;28;20515;-75
2023/09/13 01:48:03;;;;;;;13.73;10.20;;;17.70;99.90;;;17.30;100.00;97510.94;5054440;28;21418;-75
2023/09/13 01:50:31;;;;;;;13.48;9.32;;;17.50;99.90;;;17.29;100.00;97510.13;5053907;28;20049;-74
2023/09/13 01:53:01;;;;;;;18.10;9.35;;;17.60;99.90;;;17.25;100.00;97497.31;5056984;28;20056;-75
2023/09/13 01:55:33;;;;;;;14.25;9.88;;;17.60;99.90;;;17.27;100.00;97488.41;5061938;28;20046;-75
2023/09/13 01:58:01;;;;;;;11.03;8.53;;;17.70;99.90;;;17.28;100.00;97497.94;5045304;28;20045;-75
2023/09/13 02:00:28;;;;;;;10.88;8.52;;;17.70;99.90;;;17.32;100.00;97502.00;5062257;28;20151;-75
2023/09/13 02:02:55;;;;;;;11.55;8.50;;;17.80;99.90;;;17.42;100.00;97502.19;5059389;28;20041;-74
2023/09/13 02:05:23;;;;;;;10.98;7.47;;;17.80;99.90;;;17.52;100.00;97500.59;5058878;28;20044;-75
2023/09/13 02:07:50;;;;;;;12.98;8.75;;;17.80;99.90;;;17.41;100.00;97521.50;5057898;28;20055;-76
2023/09/13 02:10:17;;;;;;;12.25;9.02;;;17.80;99.90;;;17.38;100.00;97506.00;5056437;28;20056;-75
2023/09/13 02:12:44;;;;;;;13.55;8.25;;;17.80;99.90;;;17.50;100.00;97510.38;5061265;28;20057;-75
2023/09/13 02:15:12;;;;;;;11.55;7.85;;;17.90;99.90;;;17.58;100.00;97507.16;5054328;28;20338;-75
2023/09/13 02:17:41;;;;;;;10.57;6.90;;;17.90;99.90;;;17.53;100.00;97509.28;5061124;28;20068;-75
2023/09/13 02:20:11;;;;;;;10.07;7.25;;;18.00;99.90;;;17.49;100.00;97515.72;5058364;28;20067;-75
2023/09/13 02:22:38;;;;;;;12.02;7.43;;;17.90;99.90;;;17.41;100.00;97504.94;5074762;28;20051;-75
2023/09/13 02:25:06;;;;;;;14.57;8.63;;;17.90;99.90;;;17.41;100.00;97518.91;5062089;28;20527;-75
2023/09/13 02:27:33;;;;;;;10.25;8.45;;;17.80;99.90;;;17.43;100.00;97524.88;5045817;28;20051;-74
2023/09/13 02:30:04;;;;;;;10.82;7.45;;;17.80;99.90;;;17.45;100.00;97517.72;5056871;28;20110;-74
2023/09/13 02:32:31;;;;;;;14.15;9.02;;;17.80;99.90;;;17.48;100.00;97514.88;5061456;28;20056;-76
2023/09/13 02:34:58;;;;;;;15.32;10.13;;;17.70;99.90;;;17.33;100.00;97514.19;5059495;28;20051;-76
2023/09/13 02:37:27;;;;;;;14.60;10.40;;;17.70;99.90;;;17.31;100.00;97510.84;5049013;28;20070;-76
2023/09/13 02:39:57;;;;;;;18.40;10.50;;;17.80;99.90;;;17.44;100.00;97507.34;5056872;28;20090;-76
2023/09/13 02:42:24;;;;;;;16.45;11.43;;;17.80;99.90;;;17.43;100.00;97506.50;5063875;28;20120;-76
2023/09/13 02:44:51;;;;;;;17.15;11.70;;;17.80;99.90;;;17.49;100.00;97510.47;5055556;28;20059;-76
2023/09/13 02:47:19;;;;;;;17.55;13.27;;;17.70;99.90;;;17.38;100.00;97506.00;5045539;28;20041;-75
2023/09/13 02:49:46;;;;;;;19.17;12.90;;;17.70;99.90;;;17.32;100.00;97511.69;5053881;28;20705;-75
2023/09/13 02:52:13;;;;;;;18.23;13.02;;;17.70;99.90;;;17.35;100.00;97503.56;5058877;28;20127;-76
2023/09/13 02:54:44;;;;;;;16.42;11.60;;;17.80;99.90;;;17.44;100.00;97502.91;5057544;28;20056;-76
2023/09/13 02:57:11;;;;;;;16.75;12.38;;;17.80;99.90;;;17.40;100.00;97501.47;5073531;28;20407;-75
2023/09/13 02:59:39;;;;;;;17.08;12.25;;;17.80;99.90;;;17.43;100.00;97497.81;5042989;28;20044;-76
2023/09/13 03:02:06;;;;;;;18.65;13.35;;;17.70;99.90;;;17.34;100.00;97494.88;5054742;28;20045;-75
2023/09/13 03:04:33;;;;;;;16.98;12.02;;;17.70;99.90;;;17.34;100.00;97499.28;5059968;28;20044;-75
2023/09/13 03:07:00;;;;;;;17.58;11.55;;;17.70;99.90;;;17.43;100.00;97503.88;5055303;28;20150;-76
2023/09/13 03:09:27;;;;;;;16.35;11.57;;;17.70;99.90;;;17.38;100.00;97507.75;5056404;28;20071;-75
2023/09/13 03:11:55;;;;;;;15.20;12.60;;;17.60;99.90;;;17.25;100.00;97506.03;5058447;28;20127;-76
2023/09/13 03:14:22;;;;;;;21.23;13.18;;;17.60;99.90;;;17.17;100.00;97508.34;5058849;28;20171;-76
2023/09/13 03:16:49;;;;;;;17.38;12.50;;;17.70;99.90;;;17.22;100.00;97513.25;5060880;28;20052;-76
2023/09/13 03:19:16;;;;;;;16.50;12.07;;;17.70;99.90;;;17.37;100.00;97501.69;5062684;28;20604;-76
2023/09/13 03:21:44;;;;;;;15.15;10.68;;;17.70;99.90;;;17.55;100.00;97497.75;5053142;28;20591;-76
2023/09/13 03:24:11;;;;;;;14.65;10.57;;;17.80;99.90;;;17.55;100.00;97502.16;5054867;28;20048;-76
2023/09/13 03:26:38;;;;;;;16.77;12.80;;;17.90;99.90;;;17.56;100.00;97495.94;5054589;28;20094;-76
2023/09/13 03:29:05;;;;;;;15.18;11.40;;;17.80;99.90;;;17.71;100.00;97496.63;5059926;28;20046;-76
2023/09/13 03:31:35;;;;;;;13.68;9.98;;;17.90;99.90;;;17.81;100.00;97496.78;5061669;28;20055;-76
2023/09/13 03:34:03;;;;;;;12.98;10.40;;;18.00;99.90;;;17.83;100.00;97497.56;5060782;28;20041;-74
2023/09/13 03:36:30;;;;;;;14.88;11.30;;;18.10;99.90;;;17.80;100.00;97500.38;5059054;28;20131;-74
2023/09/13 03:38:57;;;;;;;14.93;11.85;;;18.20;99.90;;;17.70;100.00;97498.44;5041755;28;20131;-76
2023/09/13 03:41:26;;;;;;;17.83;12.85;;;18.20;99.90;;;17.65;100.00;97494.44;5059140;28;20071;-76
2023/09/13 03:43:53;;;;;;;19.05;12.82;;;18.20;99.90;;;17.65;100.00;97499.69;5044606;28;20044;-75
2023/09/13 03:46:23;;;;;;;18.60;11.98;;;18.10;99.90;;;17.65;100.00;97502.31;5056293;28;20547;-76
2023/09/13 03:48:51;;;;;;;17.02;11.50;;;18.00;99.90;;;17.58;100.00;97495.84;5070930;28;20052;-76
2023/09/13 03:51:18;;;;;;;18.15;13.43;;;18.00;99.90;;;17.61;100.00;97496.47;5059082;28;20084;-76
2023/09/13 03:53:45;;;;;;;19.80;13.93;;;18.10;99.90;;;17.60;100.00;97501.81;5053332;28;20048;-75
2023/09/13 03:56:13;;;;;;;23.20;15.82;;;18.00;99.90;;;17.35;100.00;97495.72;5046051;28;20052;-76
2023/09/13 03:58:40;;;;;;;22.67;15.05;;;18.00;99.90;;;17.49;100.00;97508.69;5054459;28;20081;-76
2023/09/13 04:01:08;;;;;;;20.17;14.93;;;17.80;99.90;;;17.39;100.00;97498.97;5060569;28;20528;-75
2023/09/13 04:03:38;;;;;;;18.40;15.00;;;17.80;99.90;;;17.47;100.00;97492.22;5058338;28;20048;-76
2023/09/13 04:06:05;;;;;;;21.05;16.67;;;17.80;99.90;;;17.35;100.00;97503.56;5045417;28;20045;-75
2023/09/13 04:08:33;;;;;;;17.98;12.77;;;17.90;99.90;;;17.53;100.00;97499.63;5059191;28;20440;-76
2023/09/13 04:11:01;;;;;;;17.77;11.95;;;17.90;99.90;;;17.59;100.00;97501.00;5056204;28;20078;-73
2023/09/13 04:13:30;;;;;;;18.90;13.63;;;17.80;99.90;;;17.51;100.00;97495.44;5062656;28;20049;-75
2023/09/13 04:16:02;;;;;;;15.50;12.10;;;17.80;99.90;;;17.61;100.00;97499.09;5058695;28;20049;-76
2023/09/13 04:18:30;;;;;;;17.52;11.32;;;17.90;99.90;;;17.56;100.00;97499.44;5060142;28;20079;-75
2023/09/13 04:20:57;;;;;;;17.90;11.18;;;17.90;99.90;;;17.63;100.00;97501.59;5055364;28;20118;-75
2023/09/13 04:23:24;;;;;;;14.02;10.63;;;18.10;99.90;;;17.64;100.00;97500.66;5041802;28;20048;-76
2023/09/13 04:25:52;;;;;;;13.43;11.38;;;18.10;99.90;;;17.61;100.00;97500.84;5053550;28;20570;-75
2023/09/13 04:28:19;;;;;;;16.42;12.60;;;18.00;99.90;;;17.59;100.00;97508.88;5058346;28;20048;-76
2023/09/13 04:30:47;;;;;;;24.10;13.25;;;18.00;99.90;;;17.56;100.00;97502.06;5041306;28;20071;-75
2023/09/13 04:33:14;;;;;;;15.18;11.30;;;17.90;99.90;;;17.56;100.00;97502.06;5052807;28;20462;-74
2023/09/13 04:35:41;;;;;;;14.43;11.48;;;18.00;99.90;;;17.58;100.00;97501.09;5053808;28;20753;-75
2023/09/13 04:38:08;;;;;;;13.77;11.15;;;18.00;99.90;;;17.61;100.00;97506.09;5045746;28;20133;-75
2023/09/13 04:40:41;;;;;;;20.67;12.52;;;18.00;99.90;;;17.51;100.00;97493.66;5053937;28;20577;-75
2023/09/13 04:43:07;;;;;;;15.27;11.48;;;18.00;99.90;;;17.49;100.00;97503.44;5044632;28;20076;-75
2023/09/13 04:45:34;;;;;;;11.98;9.88;;;18.00;99.90;;;17.60;100.00;97505.28;5054434;28;20045;-75
2023/09/13 04:48:02;;;;;;;13.00;9.73;;;18.00;99.90;;;17.62;100.00;97500.75;5048476;28;20045;-75
2023/09/13 04:50:30;;;;;;;12.63;9.02;;;18.10;99.90;;;17.57;100.00;97495.00;5059360;28;20162;-75
2023/09/13 04:52:57;;;;;;;12.27;8.25;;;18.10;99.90;;;17.57;100.00;97502.88;5057763;28;20511;-75
2023/09/13 04:55:26;;;;;;;11.77;8.73;;;18.10;99.90;;;17.62;100.00;97505.19;5054841;28;20433;-76
2023/09/13 04:57:54;;;;;;;11.90;9.40;;;18.10;99.90;;;17.64;100.00;97503.28;5059078;28;20056;-75
2023/09/13 05:00:21;;;;;;;12.15;9.43;;;18.10;99.90;;;17.55;100.00;97515.28;5060029;28;20048;-76
2023/09/13 05:02:48;;;;;;;12.48;8.60;;;18.00;99.90;;;17.55;100.00;97518.72;5052356;28;20581;-76
2023/09/13 05:05:15;;;;;;;11.68;8.10;;;18.00;99.90;;;17.65;100.00;97518.06;5059061;28;20053;-76
2023/09/13 05:07:42;;;;;;;13.13;8.27;;;18.00;99.90;;;17.67;100.00;97524.06;5054295;28;20111;-75
2023/09/13 05:10:09;;;;;;;12.90;8.77;;;18.00;99.90;;;17.66;100.00;97519.75;5044356;28;20075;-75
2023/09/13 05:12:36;;;;;;;13.15;8.07;;;18.10;99.90;;;17.86;100.00;97526.19;5046974;28;20041;-76
2023/09/13 05:15:04;;;;;;;12.35;8.68;;;18.20;99.90;;;17.87;100.00;97525.25;5058004;28;20057;-75
2023/09/13 05:17:31;;;;;;;11.23;7.32;;;18.30;99.90;;;17.95;100.00;97529.00;5077436;28;20044;-76
2023/09/13 05:19:58;;;;;;;10.70;8.23;;;18.40;99.90;;;17.88;100.00;97534.81;5057211;28;20072;-76
2023/09/13 05:22:26;;;;;;;12.18;8.48;;;18.40;99.90;;;17.93;100.00;97530.91;5059525;28;20040;-76
2023/09/13 05:24:53;;;;;;;10.80;8.27;;;18.20;99.90;;;17.78;100.00;97535.44;5064867;28;20045;-76
2023/09/13 05:27:20;;;;;;;13.23;7.75;;;18.20;99.90;;;17.88;100.00;97534.81;5061853;28;20071;-76
2023/09/13 05:29:48;;;;;;;12.05;7.85;;;18.20;99.90;;;17.92;100.00;97541.50;5077298;28;20106;-76
2023/09/13 05:32:15;;;;;;;14.35;9.73;;;18.20;99.90;;;17.77;100.00;97549.53;5067119;28;20052;-76
2023/09/13 05:34:42;;;;;;;12.38;9.32;;;18.20;99.90;;;17.77;100.00;97551.31;5061334;28;20056;-76
2023/09/13 05:37:10;;;;;;;14.00;10.18;;;18.20;99.90;;;17.68;100.00;97552.81;5060291;28;20064;-76
2023/09/13 05:39:37;;;;;;;12.85;9.82;;;18.20;99.90;;;17.72;100.00;97550.81;5050637;28;20394;-76
2023/09/13 05:42:04;;;;;;;14.95;9.65;;;18.10;99.90;;;17.68;100.00;97550.19;5060827;28;20063;-76
2023/09/13 05:44:33;;;;;;;12.55;9.63;;;18.20;99.90;;;17.64;100.00;97555.78;5050199;28;20088;-76
2023/09/13 05:47:00;;;;;;;10.13;8.43;;;18.20;99.90;;;17.84;100.00;97560.47;5063735;28;20056;-75
2023/09/13 05:49:27;;;;;;;12.88;9.07;;;18.30;99.90;;;17.95;100.00;97559.69;5064007;28;20076;-76
2023/09/13 05:51:55;;;;;;;17.58;10.55;;;18.30;99.90;;;17.95;100.00;97563.16;5066561;28;20103;-76
2023/09/13 05:54:22;;;;;;;14.20;9.23;;;18.30;99.90;;;17.99;100.00;97561.13;5065986;28;20126;-76
2023/09/13 05:56:53;;;;;;;12.55;9.30;;;18.40;99.90;;;18.06;100.00;97561.50;5059257;28;20497;-76
2023/09/13 05:59:20;;;;;;;13.68;8.50;;;18.40;99.90;;;18.14;100.00;97564.44;5048818;28;20053;-75
2023/09/13 06:01:47;;;;;;;15.30;9.57;;;18.40;99.90;;;18.13;100.00;97560.97;5059851;28;20048;-76
2023/09/13 06:04:15;;;;;;;12.15;7.78;;;18.40;99.90;;;18.19;100.00;97563.13;5062181;28;20093;-76
2023/09/13 06:06:42;;;;;;;13.13;8.52;;;18.50;99.90;;;18.27;100.00;97573.09;5064335;28;20413;-76
2023/09/13 06:09:09;;;;;;;13.10;9.20;;;18.50;99.90;;;18.29;100.00;97570.31;5061000;28;20045;-76
2023/09/13 06:11:36;;;;;;;12.63;9.25;;;18.70;99.90;;;18.17;100.00;97578.16;5047103;28;20216;-76
2023/09/13 06:14:07;;;;;;;14.38;8.88;;;18.70;99.90;;;18.24;100.00;97586.44;5062051;28;20179;-76
2023/09/13 06:16:37;;;;;;;12.48;9.15;;;18.50;99.90;;;18.28;100.00;97581.81;5062896;28;20052;-76
2023/09/13 06:19:05;;;;;;;14.75;9.50;;;18.50;99.90;;;18.28;100.00;97582.63;5061219;28;20059;-75
2023/09/13 06:21:32;;;;;;;11.57;8.65;;;18.40;99.90;;;18.37;100.00;97579.31;5060420;28;20504;-76
2023/09/13 06:23:59;;;;;;;12.82;9.63;;;18.50;99.90;;;18.56;100.00;97578.78;5062290;28;20045;-76
2023/09/13 06:26:27;;;;;;;13.45;7.75;;;18.60;99.90;;;18.66;100.00;97567.59;5063611;28;20049;-75
2023/09/13 06:28:54;;;;;;;12.80;8.75;;;18.80;99.90;;;18.87;100.00;97567.78;5056843;28;20603;-76
2023/09/13 06:31:21;;;;;;;12.57;9.68;;;19.00;99.90;;;18.61;100.00;97570.56;5062866;28;20152;-75
2023/09/13 06:34:01;;;;;;;12.07;9.77;;;19.00;99.90;;;18.91;100.00;97582.38;5056898;28;20096;-76
2023/09/13 06:36:31;;;;;;;12.32;10.40;;;19.00;99.90;;;19.05;100.00;97579.53;5060117;28;20167;-74
2023/09/13 06:38:59;;;;;;;10.95;9.85;;;19.10;99.90;;;19.39;100.00;97580.38;5062771;28;20236;-76
2023/09/13 06:41:26;;;;;;;10.05;8.50;;;19.30;99.90;;;19.68;100.00;97574.56;5059120;28;20163;-76
2023/09/13 06:43:54;;;;;;;12.98;9.10;;;19.40;99.90;;;19.88;100.00;97570.38;5058158;28;20506;-76
2023/09/13 06:46:37;;;;;;;10.43;8.60;;;19.60;99.90;;;19.82;100.00;97569.09;5063023;28;20049;-76
2023/09/13 06:49:05;;;;;;;9.75;8.63;;;19.70;99.90;;;19.64;100.00;97573.16;5056950;28;20064;-76
2023/09/13 06:51:34;;;;;;;9.88;8.82;;;19.80;99.90;;;19.68;100.00;97587.75;5057239;28;20041;-75
2023/09/13 06:54:04;;;;;;;10.15;7.57;;;20.00;99.90;;;19.78;100.00;97582.63;5058049;28;20134;-75
2023/09/13 06:56:35;;;;;;;9.23;7.68;;;20.00;99.90;;;19.80;100.00;97583.34;5064427;28;20072;-75
2023/09/13 06:59:06;;;;;;;8.27;6.73;;;20.00;99.90;;;20.04;100.00;97583.16;5057872;28;20056;-76
2023/09/13 07:01:38;;;;;;;8.27;6.75;;;20.30;99.90;;;20.46;100.00;97581.44;5044175;28;20065;-76
2023/09/13 07:04:25;;;;;;;9.40;6.65;;;20.50;99.90;;;20.03;100.00;97581.50;5049596;28;20076;-76
2023/09/13 07:07:03;;;;;;;9.13;5.60;;;20.40;99.90;;;19.92;100.00;97577.09;5055650;28;20420;-76
2023/09/13 07:09:30;;;;;;;9.57;6.63;;;20.20;99.90;;;19.93;100.00;97583.19;5055624;28;20699;-76
2023/09/13 07:11:57;;;;;;;7.90;5.85;;;20.20;99.90;;;20.06;100.00;97594.41;5054885;28;20110;-76
2023/09/13 07:14:24;;;;;;;7.43;5.75;;;20.30;99.90;;;20.26;100.00;97588.34;5058789;28;20506;-76
2023/09/13 07:16:51;;;;;;;9.02;7.32;;;20.30;99.90;;;20.15;100.00;97580.47;5063798;28;20067;-76
2023/09/13 07:19:18;;;;;;;10.68;7.45;;;20.20;99.90;;;19.92;100.00;97594.69;5064001;28;20132;-76
2023/09/13 07:21:46;;;;;;;11.00;8.45;;;20.30;99.90;;;19.78;100.00;97599.25;5059957;28;20059;-76
2023/09/13 07:24:13;;;;;;;13.30;9.45;;;20.30;99.90;;;19.36;100.00;97608.72;5060072;28;20133;-76
2023/09/13 07:26:40;;;;;;;10.05;8.35;;;20.20;99.90;;;19.41;100.00;97614.47;5058194;28;20052;-76
2023/09/13 07:29:07;;;;;;;10.02;7.15;;;20.10;99.90;;;19.54;100.00;97615.16;5058641;28;20172;-75
2023/09/13 07:31:34;;;;;;;8.40;7.20;;;20.10;99.90;;;19.26;100.00;97623.56;5054715;28;20104;-76
2023/09/13 07:34:02;;;;;;;8.82;7.53;;;19.90;99.90;;;19.10;100.00;97616.00;5056109;28;20594;-74
2023/09/13 07:36:30;;;;;;;8.88;6.63;;;19.80;99.90;;;19.28;100.00;97635.63;5054901;28;20065;-76
2023/09/13 07:39:00;;;;;;;8.15;6.30;;;19.60;99.90;;;19.41;100.00;97636.38;5056527;28;20113;-76
2023/09/13 07:41:27;;;;;;;7.50;5.75;;;19.50;99.90;;;19.26;100.00;97647.22;5057543;28;20055;-74
2023/09/13 07:43:54;;;;;;;8.18;6.10;;;19.30;99.90;;;19.17;100.00;97646.13;5048690;28;20132;-76
2023/09/13 07:46:23;;;;;;;7.78;4.90;;;19.20;99.90;;;19.25;100.00;97648.16;5053546;28;20044;-76
2023/09/13 07:48:50;;;;;;;7.47;6.00;;;19.20;99.90;;;19.01;100.00;97647.31;5054010;28;20056;-76
2023/09/13 07:51:17;;;;;;;8.48;5.65;;;19.20;99.90;;;19.00;100.00;97653.53;5044115;28;20048;-76
2023/09/13 07:53:44;;;;;;;7.75;4.60;;;19.30;99.90;;;19.42;100.00;97659.09;5053999;28;20049;-76
2023/09/13 07:56:12;;;;;;;7.70;5.30;;;19.60;99.90;;;19.51;100.00;97662.81;5054506;28;20072;-76
2023/09/13 07:58:39;;;;;;;6.45;4.60;;;19.80;99.90;;;19.62;100.00;97662.81;5057549;28;20057;-76
2023/09/13 08:01:06;;;;;;;7.32;6.05;;;19.80;99.90;;;19.24;100.00;97663.13;5057377;28;20056;-77
2023/09/13 08:03:33;;;;;;;8.05;5.75;;;19.60;99.90;;;19.25;100.00;97671.84;5055705;28;20044;-76
2023/09/13 08:06:03;;;;;;;7.97;6.18;;;19.30;99.90;;;18.92;100.00;97676.09;5041673;28;20139;-76
2023/09/13 08:08:33;;;;;;;6.82;5.18;;;19.20;99.90;;;19.00;100.00;97671.94;5058734;28;20044;-75
2023/09/13 08:11:00;;;;;;;7.82;6.22;;;19.10;99.90;;;19.09;100.00;97678.31;5057564;28;20048;-76
2023/09/13 08:13:27;;;;;;;7.93;5.32;;;19.10;99.90;;;19.29;100.00;97689.09;5059901;28;20041;-76
2023/09/13 08:15:55;;;;;;;9.60;6.22;;;19.10;99.90;;;19.28;100.00;97685.63;5062305;28;20122;-75
2023/09/13 08:18:22;;;;;;;8.50;5.65;;;19.30;99.90;;;19.56;100.00;97686.97;5043306;28;20048;-76
2023/09/13 08:20:51;;;;;;;7.28;5.10;;;19.40;99.90;;;19.87;100.00;97692.53;5056393;28;20535;-76
2023/09/13 08:23:18;;;;;;;7.65;4.95;;;19.60;99.90;;;19.79;100.00;97697.53;5057062;28;20045;-76
2023/09/13 08:25:45;;;;;;;9.50;5.70;;;19.90;99.90;;;20.10;100.00;97695.97;5062981;28;20052;-76
2023/09/13 08:28:12;;;;;;;7.18;5.20;;;20.20;99.90;;;20.21;100.00;97695.94;5063024;28;20075;-76
2023/09/13 08:30:40;;;;;;;6.82;5.00;;;20.20;99.90;;;20.18;100.00;97695.34;5054353;28;20051;-75
2023/09/13 08:33:09;;;;;;;5.53;4.40;;;20.30;99.90;;;20.21;100.00;97700.41;5058496;28;20622;-76
2023/09/13 08:35:36;;;;;;;6.20;4.10;;;20.40;99.90;;;20.24;100.00;97694.88;5069023;28;20049;-76
2023/09/13 08:38:05;;;;;;;10.20;5.97;;;20.60;99.90;;;19.80;100.00;97709.78;5057771;28;20135;-76
2023/09/13 08:40:32;;;;;;;7.18;5.20;;;20.40;99.90;;;20.01;100.00;97715.16;5052143;28;20095;-75
2023/09/13 08:43:00;;;;;;;6.72;5.47;;;20.20;99.90;;;19.86;100.00;97711.91;5072394;28;20049;-76
2023/09/13 08:45:30;;;;;;;6.13;4.57;;;20.50;99.90;;;20.25;100.00;97720.25;5061184;28;20076;-76
2023/09/13 08:48:01;;;;;;;6.72;4.60;;;20.50;99.90;;;20.51;100.00;97714.72;5073643;28;20417;-76
2023/09/13 08:50:30;;;;;;;7.55;5.93;;;20.60;99.90;;;20.52;100.00;97713.72;5057235;28;20140;-74
2023/09/13 08:53:02;;;;;;;6.95;4.60;;;20.90;99.90;;;21.17;100.00;97704.84;5050068;28;20053;-75
2023/09/13 08:55:31;;;;;;;8.75;4.25;;;21.20;99.90;;;21.95;100.00;97699.19;5059518;28;20064;-76
2023/09/13 08:58:01;;;;;;;7.50;5.05;;;21.90;99.90;;;22.18;100.00;97699.81;5056784;28;20049;-75
2023/09/13 09:00:37;;;;;;;5.53;3.65;;;22.40;99.90;;;23.00;100.00;97694.22;5057065;28;20080;-76
2023/09/13 09:03:07;;;;;;;7.80;4.07;;;23.20;99.90;;;23.96;100.00;97705.56;5048211;28;20045;-76
2023/09/13 09:05:36;;;;;;;6.47;4.53;;;24.10;99.90;;;23.75;100.00;97697.84;5060853;28;20060;-75
2023/09/13 09:08:04;;;;;;;9.77;4.78;;;24.00;99.90;;;23.00;100.00;97709.28;5063235;28;20053;-74
2023/09/13 09:10:32;;;;;;;11.23;5.10;;;23.70;99.90;;;21.89;100.00;97711.09;5062436;28;20489;-76
2023/09/13 09:13:01;;;;;;;6.28;4.10;;;22.80;99.90;;;21.99;100.00;97716.44;5046850;28;20053;-74
2023/09/13 09:15:31;;;;;;;8.10;4.75;;;22.60;99.90;;;21.35;100.00;97718.31;5057125;28;20516;-76
2023/09/13 09:18:02;;;;;;;6.40;4.47;;;22.40;99.90;;;21.51;100.00;97720.53;5058953;28;20172;-75
2023/09/13 09:20:30;;;;;;;6.50;4.45;;;22.30;99.90;;;21.36;100.00;97719.16;5059667;28;20044;-74
2023/09/13 09:23:00;;;;;;;8.90;5.35;;;22.20;99.90;;;21.12;100.00;97722.91;5058422;28;20602;-75
2023/09/13 09:25:30;;;;;;;7.28;5.13;;;21.80;99.90;;;21.52;100.00;97723.03;5059634;28;20527;-75
2023/09/13 09:27:57;;;;;;;7.93;4.70;;;21.70;99.90;;;21.13;100.00;97729.00;5060756;28;20151;-75
2023/09/13 09:30:32;;;;;;;6.60;5.22;;;21.70;99.90;;;20.66;100.00;97735.44;5064194;28;20056;-75
2023/09/13 09:33:04;;;;;;;11.02;5.43;;;21.30;99.90;;;20.42;100.00;97732.94;5040147;28;20053;-75
2023/09/13 09:35:33;;;;;;;;;;;21.00;99.90;;;20.34;100.00;97734.50;5059373;28;20487;-75
2023/09/13 09:38:00;;;;;;;7.55;5.70;;;20.80;99.90;;;20.45;100.00;97731.84;5062441;28;19921;-75
2023/09/13 09:40:27;;;;;;;6.78;5.13;;;20.60;99.90;;;20.50;100.00;97742.03;5064353;28;20659;-75
2023/09/13 09:42:57;;;;;;;9.60;6.80;;;20.60;99.90;;;20.39;100.00;97748.16;5055050;28;20053;-74
2023/09/13 09:45:24;;;;;;;9.07;6.50;;;20.40;99.90;;;20.41;100.00;97738.31;5057074;28;20044;-75
2023/09/13 09:47:53;;;;;;;8.75;6.28;;;20.50;99.90;;;20.75;100.00;97731.19;5062527;28;20055;-75
2023/09/13 09:50:21;;;;;;;8.32;6.20;;;20.50;99.90;;;20.88;100.00;97739.78;5062394;28;20044;-74
2023/09/13 09:52:52;;;;;;;6.22;5.10;;;20.70;99.90;;;21.19;100.00;97737.25;5064513;28;20139;-76
2023/09/13 09:55:21;;;;;;;7.63;5.30;;;20.80;99.90;;;20.90;100.00;97744.94;5066525;28;20044;-75
2023/09/13 09:57:51;;;;;;;7.75;5.10;;;21.00;99.90;;;20.86;100.00;97743.50;5061425;28;20052;-76
2023/09/13 10:00:19;;;;;;;7.32;5.05;;;21.00;99.90;;;21.50;100.00;97737.31;5047769;28;20060;-75
2023/09/13 10:02:47;;;;;;;8.48;4.70;;;21.10;99.90;;;21.31;100.00;97738.84;5058565;28;20509;-76
2023/09/13 10:05:18;;;;;;;7.38;4.57;;;21.20;99.90;;;21.48;100.00;97736.63;5056942;28;20067;-75
2023/09/13 10:07:57;;;;;;;5.72;4.65;;;21.60;99.90;;;21.45;100.00;97737.72;5055836;28;20052;-76
2023/09/13 10:10:35;;;;;;;9.93;4.75;;;21.80;99.90;;;21.54;100.00;97751.13;5056386;28;20045;-75
2023/09/13 10:13:04;;;;;;;6.47;4.50;;;21.70;99.90;;;21.51;100.00;97749.59;5055902;28;20053;-76
2023/09/13 10:15:33;;;;;;;7.63;4.95;;;21.80;99.90;;;21.70;100.00;97754.97;5043540;28;20067;-74